createdAt,value
2022-10-12T00:03:13.403Z,8.98
2022-10-12T00:08:36.326Z,9.13
2022-10-12T00:13:58.833Z,9.85
2022-10-12T00:19:20.454Z,6.40
2022-10-12T00:24:43.036Z,6.28
2022-10-12T00:30:05.518Z,9.27
2022-10-12T00:35:28.894Z,5.38
2022-10-12T00:40:50.869Z,7.35
2022-10-12T00:46:24.859Z,7.55
2022-10-12T00:51:53.243Z,10.45
2022-10-12T00:57:18.152Z,8.65
2022-10-12T01:02:43.230Z,7.07
2022-10-12T01:08:05.040Z,7.40
2022-10-12T01:13:27.155Z,6.10
2022-10-12T01:19:04.427Z,6.75
2022-10-12T01:24:52.166Z,7.30
2022-10-12T01:30:22.238Z,7.38
2022-10-12T01:36:05.189Z,7.57
2022-10-12T01:41:32.260Z,7.43
2022-10-12T01:46:55.545Z,8.45
2022-10-12T01:52:32.240Z,6.53
2022-10-12T01:58:02.894Z,6.65
2022-10-12T02:03:49.694Z,7.60
2022-10-12T02:09:41.619Z,7.10
2022-10-12T02:15:07.747Z,8.20
2022-10-12T02:20:29.425Z,7.82
2022-10-12T02:25:53.740Z,7.55
2022-10-12T02:31:25.794Z,6.20
2022-10-12T02:36:56.572Z,6.07
2022-10-12T02:42:24.942Z,5.82
2022-10-12T02:47:48.147Z,6.65
2022-10-12T02:53:12.748Z,7.78
2022-10-12T02:58:34.611Z,9.80
2022-10-12T03:03:56.305Z,6.07
2022-10-12T03:09:17.959Z,5.68
2022-10-12T03:14:40.219Z,7.82
2022-10-12T03:20:01.890Z,6.93
2022-10-12T03:25:23.553Z,6.25
2022-10-12T03:30:45.292Z,5.88
2022-10-12T03:36:08.222Z,6.53
2022-10-12T03:41:29.961Z,5.75
2022-10-12T03:46:51.686Z,5.30
2022-10-12T03:52:13.311Z,6.95
2022-10-12T03:57:35.210Z,5.43
2022-10-12T04:02:57.205Z,5.57
2022-10-12T04:08:18.924Z,5.35
2022-10-12T04:13:40.616Z,5.60
2022-10-12T04:19:02.810Z,4.88
2022-10-12T04:24:24.506Z,6.20
2022-10-12T04:29:46.320Z,6.60
2022-10-12T04:35:08.170Z,6.15
2022-10-12T04:40:30.222Z,5.93
2022-10-12T04:45:59.435Z,5.00
2022-10-12T04:51:21.163Z,5.07
2022-10-12T04:56:47.508Z,5.63
2022-10-12T05:02:09.827Z,5.03
2022-10-12T05:07:31.490Z,5.57
2022-10-12T05:12:53.152Z,4.55
2022-10-12T05:18:14.865Z,5.00
2022-10-12T05:23:36.506Z,4.57
2022-10-12T05:28:58.398Z,4.78
2022-10-12T05:34:20.450Z,4.63
2022-10-12T05:39:42.238Z,5.22
2022-10-12T05:45:05.077Z,4.28
2022-10-12T05:50:26.785Z,3.78
2022-10-12T05:55:59.246Z,3.78
2022-10-12T06:01:20.970Z,5.35
2022-10-12T06:06:42.717Z,7.88
2022-10-12T06:12:04.746Z,6.80
2022-10-12T06:17:26.475Z,7.18
2022-10-12T06:22:48.138Z,6.10
2022-10-12T06:28:10.547Z,4.88
2022-10-12T06:33:32.336Z,4.63
2022-10-12T06:38:54.027Z,7.47
2022-10-12T06:44:15.780Z,6.53
2022-10-12T06:49:37.444Z,5.05
2022-10-12T06:54:59.082Z,6.25
2022-10-12T07:00:20.963Z,5.72
2022-10-12T07:05:42.665Z,4.47
2022-10-12T07:11:06.240Z,5.32
2022-10-12T07:16:27.974Z,4.40
2022-10-12T07:21:49.745Z,5.60
2022-10-12T07:27:11.759Z,6.88
2022-10-12T07:32:33.490Z,6.85
2022-10-12T07:37:55.249Z,6.63
2022-10-12T07:43:17.318Z,4.53
2022-10-12T07:48:45.646Z,6.25
2022-10-12T07:54:11.011Z,7.18
2022-10-12T07:59:32.646Z,3.45
2022-10-12T08:04:54.336Z,6.18
2022-10-12T08:10:16.841Z,4.88
2022-10-12T08:15:38.499Z,8.23
2022-10-12T08:21:00.167Z,5.78
2022-10-12T08:26:21.836Z,7.07
2022-10-12T08:31:43.496Z,6.88
2022-10-12T08:37:05.158Z,5.75
2022-10-12T08:43:04.989Z,4.72
2022-10-12T08:48:34.755Z,6.60
2022-10-12T08:53:59.160Z,7.00
2022-10-12T08:59:21.124Z,5.90
2022-10-12T09:05:08.631Z,6.40
2022-10-12T09:10:45.106Z,6.38
2022-10-12T09:16:25.472Z,5.13
2022-10-12T09:21:48.941Z,6.43
2022-10-12T09:27:16.354Z,5.95
2022-10-12T09:32:49.398Z,4.78
2022-10-12T09:38:11.979Z,7.22
2022-10-12T09:43:33.786Z,4.60
2022-10-12T09:49:00.178Z,5.28
2022-10-12T09:54:28.698Z,8.88
2022-10-12T09:59:50.529Z,6.38
2022-10-12T10:05:25.903Z,3.50
2022-10-12T10:11:06.161Z,5.73
2022-10-12T10:16:29.360Z,6.03
2022-10-12T10:21:51.286Z,5.95
2022-10-12T10:27:30.946Z,6.90
2022-10-12T10:33:09.123Z,6.63
2022-10-12T10:39:01.222Z,5.25
2022-10-12T10:44:33.992Z,5.75
2022-10-12T10:49:57.705Z,9.82
2022-10-12T10:55:21.070Z,9.07
2022-10-12T11:00:49.240Z,16.88
2022-10-12T11:06:20.136Z,12.23
2022-10-12T11:11:44.167Z,9.30
2022-10-12T11:17:12.966Z,9.48
2022-10-12T11:22:45.110Z,13.13
2022-10-12T11:28:11.053Z,11.63
2022-10-12T11:33:39.500Z,9.93
2022-10-12T11:39:18.030Z,14.40
2022-10-12T11:44:47.735Z,10.75
2022-10-12T11:50:39.735Z,8.50
2022-10-12T11:56:21.895Z,10.43
2022-10-12T12:02:11.887Z,8.05
2022-10-12T12:07:41.355Z,10.15
2022-10-12T12:13:13.211Z,9.32
2022-10-12T12:19:09.890Z,8.43
2022-10-12T12:24:31.640Z,8.47
2022-10-12T12:29:54.330Z,8.07
2022-10-12T12:35:24.254Z,6.20
2022-10-12T12:41:05.904Z,7.38
2022-10-12T12:46:52.434Z,7.63
2022-10-12T12:52:29.541Z,9.63
2022-10-12T12:58:06.176Z,7.78
2022-10-12T13:03:52.454Z,6.20
2022-10-12T13:09:16.844Z,7.35
2022-10-12T13:14:54.761Z,6.82
2022-10-12T13:20:23.632Z,5.65
2022-10-12T13:26:06.619Z,5.28
2022-10-12T13:31:36.925Z,5.68
2022-10-12T13:37:01.373Z,4.95
2022-10-12T13:42:28.009Z,7.25
2022-10-12T13:47:49.687Z,5.97
2022-10-12T13:53:15.111Z,5.22
2022-10-12T13:58:37.082Z,8.57
2022-10-12T14:04:05.263Z,4.88
2022-10-12T14:09:31.257Z,4.85
2022-10-12T14:14:53.951Z,5.93
2022-10-12T14:20:35.010Z,9.27
2022-10-12T14:25:57.331Z,6.75
2022-10-12T14:31:19.154Z,7.88
2022-10-12T14:36:40.849Z,11.27
2022-10-12T14:42:19.256Z,11.02
2022-10-12T14:47:43.037Z,11.75
2022-10-12T14:53:10.207Z,5.22
2022-10-12T14:58:31.863Z,6.53
2022-10-12T15:03:53.509Z,6.82
2022-10-12T15:09:15.186Z,7.15
2022-10-12T15:14:36.817Z,12.18
2022-10-12T15:19:58.549Z,8.80
2022-10-12T15:25:23.912Z,9.60
2022-10-12T15:31:15.397Z,6.95
2022-10-12T15:36:28.314Z,10.05
2022-10-12T15:41:49.998Z,6.15
2022-10-12T15:47:12.065Z,16.20
2022-10-12T15:52:33.947Z,9.95
2022-10-12T15:57:56.674Z,14.02
2022-10-12T16:03:25.562Z,9.05
2022-10-12T16:08:47.844Z,8.48
2022-10-12T16:14:14.495Z,10.35
2022-10-12T16:19:36.129Z,11.77
2022-10-12T16:24:57.809Z,11.30
2022-10-12T16:30:20.249Z,9.30
2022-10-12T16:35:42.191Z,8.27
2022-10-12T16:41:11.551Z,11.15
2022-10-12T16:46:33.265Z,16.30
2022-10-12T16:51:55.247Z,9.00
2022-10-12T16:57:16.928Z,12.27
2022-10-12T17:02:39.068Z,10.82
2022-10-12T17:08:01.112Z,15.07
2022-10-12T17:13:22.782Z,21.58
2022-10-12T17:18:44.567Z,14.20
2022-10-12T17:24:06.509Z,16.25
2022-10-12T17:29:30.053Z,18.17
2022-10-12T17:34:51.755Z,11.93
2022-10-12T17:40:13.432Z,14.82
2022-10-12T17:45:35.070Z,20.05
2022-10-12T17:51:09.521Z,19.13
2022-10-12T17:56:31.318Z,10.88
2022-10-12T18:01:53.602Z,11.48
2022-10-12T18:07:15.585Z,8.38
2022-10-12T18:12:37.668Z,11.30
2022-10-12T18:17:59.362Z,11.75
2022-10-12T18:23:21.129Z,8.60
2022-10-12T18:28:42.926Z,11.20
2022-10-12T18:34:04.715Z,10.35
2022-10-12T18:39:26.377Z,11.30
2022-10-12T18:44:48.093Z,14.88
2022-10-12T18:50:09.938Z,12.70
2022-10-12T18:55:32.320Z,24.02
2022-10-12T19:00:55.269Z,15.60
2022-10-12T19:06:20.122Z,23.08
2022-10-12T19:11:41.880Z,21.20
2022-10-12T19:17:03.563Z,12.13
2022-10-12T19:22:26.351Z,10.85
2022-10-12T19:27:48.447Z,19.70
2022-10-12T19:33:10.119Z,9.75
2022-10-12T19:38:31.858Z,13.82
2022-10-12T19:43:53.827Z,15.63
2022-10-12T19:49:17.191Z,8.82
2022-10-12T19:54:38.865Z,18.40
2022-10-12T20:00:00.529Z,13.27
2022-10-12T20:05:22.184Z,5.75
2022-10-12T20:10:43.867Z,8.20
2022-10-12T20:16:06.170Z,8.70
2022-10-12T20:21:28.144Z,4.45
2022-10-12T20:26:49.803Z,27.13
2022-10-12T20:32:11.482Z,11.13
2022-10-12T20:37:33.449Z,17.98
2022-10-12T20:42:56.164Z,16.02
2022-10-12T20:48:18.055Z,11.10
2022-10-12T20:53:39.775Z,13.70
2022-10-12T20:59:02.093Z,11.13
2022-10-12T21:04:25.491Z,10.32
2022-10-12T21:09:47.226Z,10.40
2022-10-12T21:15:09.478Z,4.10
2022-10-12T21:20:31.121Z,8.23
2022-10-12T21:25:53.127Z,6.85
2022-10-12T21:31:15.853Z,7.85
2022-10-12T21:36:38.000Z,5.30
2022-10-12T21:41:59.649Z,8.23
2022-10-12T21:47:21.279Z,6.35
2022-10-12T21:52:42.951Z,5.72
2022-10-12T21:58:04.675Z,2.63
2022-10-12T22:03:26.304Z,5.57
2022-10-12T22:08:53.830Z,2.97
2022-10-12T22:14:18.372Z,4.57
2022-10-12T22:19:40.086Z,5.85
2022-10-12T22:25:01.777Z,1.73
2022-10-12T22:30:23.429Z,3.47
2022-10-12T22:36:00.046Z,2.45
2022-10-12T22:41:23.152Z,2.97
2022-10-12T22:46:44.899Z,1.70
2022-10-12T22:52:06.585Z,1.15
2022-10-12T22:57:30.186Z,3.08
2022-10-12T23:02:51.807Z,2.92
2022-10-12T23:08:15.242Z,1.80
2022-10-12T23:13:38.307Z,1.20
2022-10-12T23:19:02.136Z,1.15
2022-10-12T23:24:23.759Z,2.95
2022-10-12T23:29:46.923Z,1.33
2022-10-12T23:35:08.712Z,1.67
2022-10-12T23:40:30.350Z,2.95
2022-10-12T23:45:51.991Z,1.23
2022-10-12T23:51:13.772Z,1.95
2022-10-12T23:56:35.821Z,1.85
